Flight Track Log - Related Links

Times and Time Zones

All times are in EDT time to prevent confusion due to time zone crossing. See the EJA982 flight status page for this flight to view local times or setup timezone preferences in your user account.

Time Position Orientation Groundspeed Altitude Reporting Facility
EDT Latitude Longitude Course Direction KTS MPH feet Rate Location/Type
Sat 11:01:00 AM 41.8000 -87.8333 270° West 231 266 2,800  Level Chicago TRACON
Sat 11:01:25 AM 41.7936 -87.8483 240° Southwest 226 260 3,300 3,103 Climbing Chicago Center
Sat 11:02:27 AM 41.7869 -87.9431 265° West 248 285 7,300 4,000 Climbing Chicago Center
Sat 11:03:28 AM 41.7822 -88.0631 267° West 270 311 11,500 2,439 Climbing Chicago Center
Sat 11:04:30 AM 41.7806 -88.1664 269° West 279 321 12,300 1,452 Climbing Chicago Center
Sat 11:05:32 AM 41.7783 -88.2894 269° West 329 379 14,500 2,341 Climbing Chicago Center
Sat 11:06:00 AM 41.7333 -88.5898 270° West  Level FlightAware Approximate
Sat 11:06:33 AM 41.7758 -88.4169 269° West 344 396 17,100  Level Chicago Center
Sat 11:07:35 AM 41.7731 -88.5478 268° West 352 405 19,600 1,984 Climbing Chicago Center
Sat 11:08:37 AM 41.7681 -88.7103 268° West 366 421 21,200 1,415 Climbing Chicago Center
Sat 11:09:38 AM 41.7650 -88.8578 268° West 395 455 22,500 1,610 Climbing Chicago Center
Sat 11:10:40 AM 41.7617 -89.0081 268° West 407 468 24,500 1,742 Climbing Chicago Center
Sat 11:11:42 AM 41.7603 -89.1594 269° West 408 470 26,100 1,610 Climbing Chicago Center
Sat 11:12:43 AM 41.7589 -89.3136 269° West 417 480 27,800 1,707 Climbing Chicago Center
Sat 11:13:45 AM 41.7575 -89.4692 269° West 420 483 29,600 1,742 Climbing Chicago Center
Sat 11:14:47 AM 41.7528 -89.6303 268° West 432 497 31,400 1,659 Climbing Chicago Center
Sat 11:15:48 AM 41.7494 -89.8231 269° West 435 501 33,000 780 Climbing Chicago Center
Sat 11:16:50 AM 41.7447 -89.9928 268° West 449 517 33,000  Level Chicago Center
Sat 11:17:52 AM 41.7406 -90.1686 268° West 468 539 33,000 341 Level Chicago Center
Sat 11:18:53 AM 41.7364 -90.3447 268° West 474 545 33,700 878 Climbing Chicago Center
Sat 11:19:55 AM 41.7311 -90.5139 268° West 463 533 34,800 629 Climbing Chicago Center
Sat 11:20:57 AM 41.7264 -90.6914 268° West 434 499 35,000 97 Climbing Chicago Center
Sat 11:21:59 AM 41.7219 -90.8531 268° West 435 501 35,000  Level Chicago Center
Sat 11:23:00 AM 41.7164 -91.0161 267° West 441 507 35,000 244 Level Chicago Center
Sat 11:24:02 AM 41.7117 -91.1744 268° West 432 497 35,500 484 Climbing Chicago Center
Sat 11:25:04 AM 41.7058 -91.3283 267° West 419 482 36,000 242 Climbing Chicago Center
Sat 11:26:06 AM 41.6994 -91.5231 268° West 437 503 36,000  Level Chicago Center
Sat 11:27:07 AM 41.6939 -91.6836 267° West 436 502 36,000  Level Chicago Center
Sat 11:28:09 AM 41.6881 -91.8442 267° West 434 499 36,000  Level Chicago Center
Sat 11:29:11 AM 41.6811 -92.0067 267° West 441 507 36,000  Level Chicago Center
Sat 11:30:13 AM 41.6744 -92.1681 267° West 437 503 36,000  Level Chicago Center
Sat 11:31:14 AM 41.6678 -92.3261 267° West 431 496 36,000  Level Chicago Center
Sat 11:32:16 AM 41.6594 -92.5225 267° West 443 510 36,000  Level Chicago Center
Sat 11:33:18 AM 41.6522 -92.6822 267° West 438 504 36,000  Level Chicago Center
Sat 11:34:20 AM 41.6450 -92.8294 266° West 432 497 36,000  Level Chicago Center
Sat 11:35:03 AM 41.6392 -92.9553 266° West 430 495 36,000 -457 Level Minneapolis Center
Sat 11:36:05 AM 41.6314 -93.1133 266° West 429 494 35,200 -816 Descending Minneapolis Center
Sat 11:37:08 AM 41.6233 -93.2778 266° West 440 506 34,300 -576 Descending Minneapolis Center
Sat 11:38:10 AM 41.6117 -93.4828 266° West 459 528 34,000 -145 Descending Minneapolis Center
Sat 11:39:12 AM 41.6050 -93.6436 267° West 448 516 34,000  Level Minneapolis Center
Sat 11:40:13 AM 41.5950 -93.8083 265° West 448 516 34,000  Level Minneapolis Center
Sat 11:41:15 AM 41.5864 -93.9736 266° West 450 518 34,000 -1,065 Level Minneapolis Center
Sat 11:42:17 AM 41.5769 -94.1383 266° West 450 518 31,800 -2,468 Descending Minneapolis Center
Sat 11:43:19 AM 41.5658 -94.3250 266° West 462 532 28,900 -2,710 Descending Minneapolis Center
Sat 11:44:21 AM 41.5547 -94.4975 265° West 465 535 26,200 -2,634 Descending Minneapolis Center
Sat 11:45:22 AM 41.5436 -94.6681 265° West 463 533 23,500 -2,878 Descending Minneapolis Center
Sat 11:46:24 AM 41.5308 -94.8658 265° West 451 519 20,300 -2,930 Descending Minneapolis Center
Sat 11:46:48 AM 41.5397 -94.9356 280° West 434 499 19,300 -2,419 Descending Minneapolis Center
Sat 11:47:26 AM 41.5203 -95.0214 253° West 426 490 17,800 -2,597 Descending Minneapolis Center
Sat 11:47:55 AM 41.5256 -95.1100 275° West 409 471 16,400 -2,806 Descending Minneapolis Center
Sat 11:48:28 AM 41.5119 -95.1711 253° West 410 472 14,900 -3,500 Descending Minneapolis Center
Sat 11:48:55 AM 41.5150 -95.2564 273° West 401 461 12,900 -3,677 Descending Minneapolis Center
Sat 11:49:30 AM 41.5039 -95.3169 256° West 401 461 11,100 -2,164 Descending Minneapolis Center
Sat 11:49:56 AM 41.5056 -95.3883 272° West 333 383 10,700 -968 Descending Minneapolis Center
Sat 11:50:32 AM 41.4981 -95.4311 257° West 342 394 10,100 -1,100 Descending Minneapolis Center
Sat 11:50:56 AM 41.5003 -95.4922 273° West 264 304 9,600 -1,082 Descending Minneapolis Center
Sat 11:51:33 AM 41.4942 -95.5336 259° West 303 349 9,000 -1,082 Descending Minneapolis Center
Sat 11:51:57 AM 41.4969 -95.5956 273° West 271 312 8,500 -1,065 Descending Minneapolis Center
Sat 11:52:35 AM 41.4928 -95.6367 262° West 288 331 7,900 -1,082 Descending Minneapolis Center
Sat 11:52:58 AM 41.4953 -95.6958 273° West 274 315 7,400 -1,355 Descending Minneapolis Center
Sat 11:53:37 AM 41.4942 -95.7539 269° West 275 316 6,500 -1,200 Descending Minneapolis Center
Sat 11:53:58 AM 41.4961 -95.8017 273° West 264 304 6,200 -1,065 Descending Minneapolis Center
Sat 11:54:39 AM 41.4947 -95.8483 268° West 266 306 5,400 -1,082 Descending Minneapolis Center
Sat 11:54:59 AM 41.4917 -95.8911 265° West 243 280 5,100 -1,082 Descending Minneapolis Center
Sat 11:55:40 AM 41.4847 -95.9369 259° West 254 292 4,300 -1,100 Descending Minneapolis Center
Sat 11:55:59 AM 41.4786 -95.9817 260° West 254 292 4,000 -1,065 Descending Minneapolis Center
Sat 11:56:42 AM 41.4636 -96.0178 241° Southwest 245 282 3,200 -885 Descending Minneapolis Center
Sat 11:57:00 AM 41.4400 -96.0278 198° South 213 245 3,100 -194 Descending Minneapolis Center
Sat 11:57:44 AM 41.4131 -95.9947 137° Southeast 222 255 3,000 -98 Descending Minneapolis Center
Sat 11:58:01 AM 41.3975 -95.9883 163° South 170 196 3,000 -484 Level Minneapolis Center
Sat 11:58:46 AM 41.3769 -95.9600 134° Southeast 187 215 2,500 -700 Descending Minneapolis Center
Sat 11:59:01 AM 41.3661 -95.9558 164° South 135 155 2,300 -727 Descending Minneapolis Center
Sat 11:59:52 AM 41.3433 -95.9272 137° Southeast 149 171 1,700 -637 Descending Minneapolis Center
Sat 12:00:54 PM 41.3167 -95.9036 146° Southeast 128 147 1,100 -581 Descending Minneapolis Center
Sat 12:02:00 PM 41.3032 -95.8941 159° South  Level Estimated

Login

Don't have an account? Register now (free) for customized features, flight alerts, and more!